createdAt,value
2022-10-08T00:09:29.277Z,13.80
2022-10-08T00:19:33.839Z,14.30
2022-10-08T00:29:37.601Z,12.10
2022-10-08T00:39:41.791Z,14.70
2022-10-08T00:49:51.695Z,12.90
2022-10-08T00:59:56.820Z,12.60
2022-10-08T01:10:23.025Z,15.40
2022-10-08T01:20:32.683Z,9.50
2022-10-08T01:30:40.708Z,13.90
2022-10-08T01:40:47.583Z,11.80
2022-10-08T01:50:51.248Z,12.40
2022-10-08T02:00:57.291Z,10.70
2022-10-08T02:11:01.052Z,9.70
2022-10-08T02:21:34.797Z,8.10
2022-10-08T02:31:42.064Z,7.20
2022-10-08T02:41:52.359Z,8.10
2022-10-08T02:52:02.378Z,8.50
2022-10-08T03:02:06.691Z,7.90
2022-10-08T03:12:10.824Z,8.00
2022-10-08T03:22:14.489Z,10.50
2022-10-08T03:32:18.051Z,15.60
2022-10-08T03:42:21.718Z,9.70
2022-10-08T03:52:25.397Z,9.40
2022-10-08T04:02:29.219Z,7.10
2022-10-08T04:12:32.916Z,8.20
2022-10-08T04:22:36.405Z,7.60
2022-10-08T04:32:40.270Z,7.00
2022-10-08T04:42:44.692Z,9.90
2022-10-08T04:52:49.443Z,10.40
2022-10-08T05:02:53.752Z,15.00
2022-10-08T05:12:57.583Z,13.00
2022-10-08T05:23:01.567Z,15.70
2022-10-08T05:33:05.435Z,13.20
2022-10-08T05:43:09.417Z,23.20
2022-10-08T05:53:13.420Z,12.90
2022-10-08T06:03:17.160Z,10.20
2022-10-08T06:13:22.130Z,13.00
2022-10-08T06:23:25.922Z,12.80
2022-10-08T06:33:30.383Z,10.30
2022-10-08T06:43:34.766Z,8.80
2022-10-08T06:53:39.680Z,8.10
2022-10-08T07:03:44.585Z,8.80
2022-10-08T07:13:48.844Z,7.70
2022-10-08T07:23:54.398Z,8.50
2022-10-08T07:34:00.361Z,6.30
2022-10-08T07:44:06.066Z,6.20
2022-10-08T07:54:14.951Z,6.90
2022-10-08T08:04:18.727Z,8.00
2022-10-08T08:14:22.591Z,7.40
2022-10-08T08:24:26.057Z,7.70
2022-10-08T08:34:30.842Z,9.20
2022-10-08T08:44:38.908Z,11.20
2022-10-08T08:54:46.674Z,6.50
2022-10-08T09:15:02.388Z,3.90
2022-10-08T09:25:20.815Z,5.70
2022-10-08T09:35:25.802Z,6.40
2022-10-08T09:45:39.274Z,8.00
2022-10-08T09:55:52.458Z,6.70
2022-10-08T10:05:59.597Z,7.80
2022-10-08T10:16:26.350Z,4.70
2022-10-08T10:26:36.324Z,4.10
2022-10-08T10:37:02.699Z,6.80
2022-10-08T10:47:09.539Z,4.90
2022-10-08T10:57:35.508Z,4.80
2022-10-08T11:08:08.067Z,5.90
2022-10-08T11:18:24.316Z,7.70
2022-10-08T11:29:01.334Z,4.30
2022-10-08T11:39:19.404Z,3.50
2022-10-08T11:49:25.684Z,4.80
2022-10-08T11:59:37.174Z,5.20
2022-10-08T12:10:05.520Z,6.70
2022-10-08T12:20:23.321Z,4.30
2022-10-08T12:30:46.810Z,4.00
2022-10-08T12:41:01.133Z,4.40
2022-10-08T12:51:22.212Z,7.40
2022-10-08T13:01:26.979Z,5.80
2022-10-08T13:11:31.026Z,4.60
2022-10-08T13:21:38.255Z,5.30
2022-10-08T13:31:42.243Z,6.00
2022-10-08T13:41:52.435Z,6.30
2022-10-08T13:51:59.436Z,8.00
2022-10-08T14:02:03.950Z,6.30
2022-10-08T14:12:09.685Z,13.00
2022-10-08T14:22:15.062Z,14.70
2022-10-08T14:32:18.905Z,10.00
2022-10-08T14:42:22.462Z,7.90
2022-10-08T14:52:26.591Z,7.70
2022-10-08T15:02:30.717Z,9.40
2022-10-08T15:12:35.535Z,7.50
2022-10-08T15:22:39.487Z,8.30
2022-10-08T15:32:43.357Z,8.40
2022-10-08T15:42:52.790Z,8.10
2022-10-08T15:52:57.068Z,9.90
2022-10-08T16:03:01.001Z,9.20
2022-10-08T16:13:05.185Z,10.20
2022-10-08T16:23:09.885Z,20.00
2022-10-08T16:33:13.958Z,17.30
2022-10-08T16:43:17.708Z,19.40
2022-10-08T16:53:21.599Z,19.10
2022-10-08T17:03:25.353Z,23.40
2022-10-08T17:13:29.238Z,25.50
2022-10-08T17:23:37.396Z,29.90
2022-10-08T17:33:43.231Z,31.80
2022-10-08T17:43:48.642Z,24.50
2022-10-08T17:53:54.837Z,34.00
2022-10-08T18:04:04.986Z,28.50
2022-10-08T18:14:09.224Z,29.10
2022-10-08T18:24:14.332Z,32.00
2022-10-08T18:34:19.291Z,35.90
2022-10-08T18:44:25.951Z,37.60
2022-10-08T18:54:33.310Z,31.10
2022-10-08T19:04:40.564Z,40.60
2022-10-08T19:14:45.027Z,43.80
2022-10-08T19:24:49.632Z,44.90
2022-10-08T19:34:54.164Z,40.30
2022-10-08T19:44:59.121Z,40.80
2022-10-08T19:55:06.285Z,40.10
2022-10-08T20:05:10.475Z,35.80
2022-10-08T20:15:14.602Z,39.00
2022-10-08T20:25:20.838Z,38.10
2022-10-08T20:35:24.817Z,42.50
2022-10-08T20:45:28.894Z,42.80
2022-10-08T20:55:32.864Z,47.10
2022-10-08T21:05:43.387Z,41.10
2022-10-08T21:15:49.174Z,34.80
2022-10-08T21:26:14.673Z,38.90
2022-10-08T21:36:27.431Z,28.70
2022-10-08T21:46:34.317Z,28.00
2022-10-08T21:56:39.835Z,32.60
2022-10-08T22:06:46.667Z,33.70
2022-10-08T22:16:51.007Z,31.00
2022-10-08T22:26:54.882Z,29.70
2022-10-08T22:36:58.793Z,30.10
2022-10-08T22:47:02.535Z,28.90
2022-10-08T22:57:06.264Z,34.00
2022-10-08T23:07:10.039Z,27.40
2022-10-08T23:17:13.709Z,28.40
2022-10-08T23:27:17.186Z,27.10
2022-10-08T23:37:20.644Z,25.50
2022-10-08T23:47:24.507Z,27.60
2022-10-08T23:57:28.171Z,22.80
